Walland, Tennessee
Current Conditions -  °F | °C
As of 5:53 PM on Monday 20 Oct 2014 (Local Time) from KTYS Reporting Station
Overcast Overcast  
Wind Chill: 64°   Ceiling: 10000
Heat Index: 64°   Visibility: 10mi
Dew Point: 51°   Wind: 8mph
Humidity: 63%   Direction: 270°W
Pressure: 29.97"   Gusts: NA
Location:  35.73°N, 83.81°W
Report Text: KTYS 202153Z 27007KT 10SM FEW035 OVC100 18/11 A2997 RMK AO2 SLP145 VIRGA NE-E-S T01780106
Loading
Personal Weather Stations






























Interactive Weather Map
Tropical Storm Tracking
New forecast layout! Learn more

10-Day Weather Forecast

Advertisements
Track Severe Weather on mobile